createdAt,value
2023-05-02T00:02:33.068Z,100743.00
2023-05-02T00:12:35.378Z,100738.22
2023-05-02T00:22:37.849Z,100759.22
2023-05-02T00:32:40.379Z,100767.09
2023-05-02T00:42:42.445Z,100773.06
2023-05-02T00:52:44.865Z,100782.59
2023-05-02T01:03:22.952Z,100783.81
2023-05-02T01:13:28.424Z,100794.53
2023-05-02T01:24:11.007Z,100800.59
2023-05-02T01:34:13.227Z,100799.59
2023-05-02T01:44:17.077Z,100812.59
2023-05-02T01:54:21.261Z,100823.09
2023-05-02T02:04:23.825Z,100843.44
2023-05-02T02:14:27.852Z,100860.84
2023-05-02T02:24:30.799Z,100870.69
2023-05-02T02:34:32.912Z,100868.72
2023-05-02T02:44:44.160Z,100877.91
2023-05-02T02:55:00.977Z,100888.00
2023-05-02T03:05:04.568Z,100884.75
2023-05-02T03:15:30.119Z,100890.69
2023-05-02T03:25:33.031Z,100904.25
2023-05-02T03:35:35.149Z,100905.97
2023-05-02T03:45:37.881Z,100917.59
2023-05-02T03:55:40.855Z,100923.69
2023-05-02T04:05:45.653Z,100924.03
2023-05-02T04:15:50.269Z,100934.13
2023-05-02T04:25:56.592Z,100943.09
2023-05-02T04:36:07.160Z,100965.94
2023-05-02T04:46:10.582Z,100974.72
2023-05-02T04:56:14.658Z,100985.25
2023-05-02T05:06:17.624Z,101005.72
2023-05-02T05:16:20.637Z,101011.84
2023-05-02T05:26:25.195Z,101028.47
2023-05-02T05:36:27.800Z,101058.78
2023-05-02T05:46:29.934Z,101067.09
2023-05-02T05:56:33.011Z,101075.56
2023-05-02T06:06:48.379Z,101092.88
2023-05-02T06:16:50.634Z,101098.31
2023-05-02T06:26:52.714Z,101114.94
2023-05-02T06:36:57.873Z,101116.69
2023-05-02T06:47:00.177Z,101138.75
2023-05-02T06:57:02.959Z,101163.91
2023-05-02T07:07:05.249Z,101172.88
2023-05-02T07:17:07.393Z,101190.88
2023-05-02T07:27:10.240Z,101209.47
2023-05-02T07:37:12.343Z,101222.84
2023-05-02T07:47:14.363Z,101229.19
2023-05-02T07:57:16.529Z,101259.53
2023-05-02T08:07:18.842Z,101282.25
2023-05-02T08:17:21.839Z,101299.97
2023-05-02T08:27:23.920Z,101312.81
2023-05-02T08:37:26.157Z,101342.00
2023-05-02T08:47:29.979Z,101350.91
2023-05-02T08:57:32.179Z,101359.84
2023-05-02T09:07:46.463Z,101366.41
2023-05-02T09:17:48.988Z,101381.50
2023-05-02T09:27:57.711Z,101402.19
2023-05-02T09:37:59.798Z,101411.41
2023-05-02T09:48:02.741Z,101424.31
2023-05-02T09:58:05.863Z,101433.91
2023-05-02T10:08:11.671Z,101450.88
2023-05-02T10:18:15.959Z,101463.16
2023-05-02T10:28:18.406Z,101458.38
2023-05-02T10:38:22.514Z,101456.75
2023-05-02T10:48:27.661Z,101453.28
2023-05-02T10:58:31.303Z,101459.25
2023-05-02T11:08:33.417Z,101463.50
2023-05-02T11:19:01.031Z,101454.75
2023-05-02T11:29:03.370Z,101468.00
2023-05-02T11:39:19.109Z,101467.25
2023-05-02T11:49:21.466Z,101468.72
2023-05-02T11:59:23.505Z,101470.75
2023-05-02T12:09:25.562Z,101479.63
2023-05-02T12:19:27.864Z,101486.66
2023-05-02T12:29:43.254Z,101485.47
2023-05-02T12:39:45.384Z,101500.81
2023-05-02T12:49:52.337Z,101516.56
2023-05-02T12:59:54.697Z,101508.03
2023-05-02T13:09:56.732Z,101513.81
2023-05-02T13:20:01.928Z,101532.84
2023-05-02T13:30:08.439Z,101518.72
2023-05-02T13:40:11.984Z,101531.50
2023-05-02T13:50:14.016Z,101530.81
2023-05-02T14:00:16.903Z,101531.22
2023-05-02T14:10:18.887Z,101522.00
2023-05-02T14:20:23.347Z,101525.25
2023-05-02T14:30:25.461Z,101517.03
2023-05-02T14:40:27.578Z,101524.56
2023-05-02T14:50:29.888Z,101515.53
2023-05-02T15:00:34.745Z,101518.72
2023-05-02T15:10:38.064Z,101522.81
2023-05-02T15:20:40.100Z,101520.72
2023-05-02T15:30:42.248Z,101526.97
2023-05-02T15:40:44.304Z,101530.25
2023-05-02T15:50:47.183Z,101537.19
2023-05-02T16:00:51.721Z,101542.50
2023-05-02T16:10:54.470Z,101550.38
2023-05-02T16:20:59.624Z,101554.41
2023-05-02T16:31:11.037Z,101555.38
2023-05-02T16:41:13.443Z,101550.16
2023-05-02T16:51:15.596Z,101559.47
2023-05-02T17:01:17.719Z,101569.59
2023-05-02T17:11:21.882Z,101579.69
2023-05-02T17:21:24.262Z,101566.66
2023-05-02T17:31:26.387Z,101566.66
2023-05-02T17:41:28.620Z,101577.47
2023-05-02T17:51:31.991Z,101582.97
2023-05-02T18:01:34.092Z,101594.34
2023-05-02T18:11:36.359Z,101590.28
2023-05-02T18:21:38.422Z,101604.22
2023-05-02T18:31:41.867Z,101604.13
2023-05-02T18:41:44.168Z,101606.47
2023-05-02T18:51:46.587Z,101608.44
2023-05-02T19:01:48.693Z,101629.19
2023-05-02T19:11:50.890Z,101636.50
2023-05-02T19:21:53.231Z,101655.81
2023-05-02T19:31:55.364Z,101653.09
2023-05-02T19:41:57.507Z,101673.84
2023-05-02T19:51:59.530Z,101693.09
2023-05-02T20:02:02.762Z,101697.69
2023-05-02T20:12:05.261Z,101711.09
2023-05-02T20:22:07.281Z,101706.06
2023-05-02T20:32:09.382Z,101712.88
2023-05-02T20:42:11.690Z,101717.38
2023-05-02T20:52:15.422Z,101721.59
2023-05-02T21:02:17.572Z,101728.00
2023-05-02T21:12:19.605Z,101739.72
2023-05-02T21:22:22.008Z,101739.16
2023-05-02T21:32:25.815Z,101734.16
2023-05-02T21:42:28.048Z,101743.59
2023-05-02T21:52:31.648Z,101741.91
2023-05-02T22:02:33.780Z,101750.09
2023-05-02T22:12:35.843Z,101751.94
2023-05-02T22:22:38.106Z,101745.34
2023-05-02T22:32:41.259Z,101756.66
2023-05-02T22:42:43.328Z,101765.34
2023-05-02T22:52:46.492Z,101776.00
2023-05-02T23:02:48.599Z,101766.72
2023-05-02T23:12:50.773Z,101756.28
2023-05-02T23:22:52.790Z,101764.22
2023-05-02T23:32:54.864Z,101760.13
2023-05-02T23:42:57.091Z,101763.31
2023-05-02T23:52:59.349Z,101760.09
